sensor_id;sensor_type;location;lat;lon;timestamp;temperature;humidity
360;DHT22;168;48.872;9.226;2023-07-09T00:00:14;24.30;72.40
360;DHT22;168;48.872;9.226;2023-07-09T00:02:41;24.20;72.70
360;DHT22;168;48.872;9.226;2023-07-09T00:05:11;24.10;73.00
360;DHT22;168;48.872;9.226;2023-07-09T00:07:40;24.10;73.30
360;DHT22;168;48.872;9.226;2023-07-09T00:10:15;24.00;73.70
360;DHT22;168;48.872;9.226;2023-07-09T00:12:43;23.90;73.80
360;DHT22;168;48.872;9.226;2023-07-09T00:15:11;23.80;74.00
360;DHT22;168;48.872;9.226;2023-07-09T00:17:39;23.80;74.20
360;DHT22;168;48.872;9.226;2023-07-09T00:20:10;23.70;74.30
360;DHT22;168;48.872;9.226;2023-07-09T00:22:40;23.70;75.00
360;DHT22;168;48.872;9.226;2023-07-09T00:25:10;23.60;75.10
360;DHT22;168;48.872;9.226;2023-07-09T00:27:41;23.60;75.70
360;DHT22;168;48.872;9.226;2023-07-09T00:30:15;23.50;75.70
360;DHT22;168;48.872;9.226;2023-07-09T00:32:43;23.50;76.00
360;DHT22;168;48.872;9.226;2023-07-09T00:35:11;23.50;76.20
360;DHT22;168;48.872;9.226;2023-07-09T00:37:42;23.40;76.30
360;DHT22;168;48.872;9.226;2023-07-09T00:40:18;23.40;76.60
360;DHT22;168;48.872;9.226;2023-07-09T00:42:49;23.30;76.80
360;DHT22;168;48.872;9.226;2023-07-09T00:45:20;23.20;77.00
360;DHT22;168;48.872;9.226;2023-07-09T00:47:52;23.20;77.40
360;DHT22;168;48.872;9.226;2023-07-09T00:50:41;23.20;77.50
360;DHT22;168;48.872;9.226;2023-07-09T00:53:15;23.10;77.70
360;DHT22;168;48.872;9.226;2023-07-09T00:55:48;23.10;78.00
360;DHT22;168;48.872;9.226;2023-07-09T00:58:20;23.00;78.40
360;DHT22;168;48.872;9.226;2023-07-09T01:00:52;23.00;78.60
360;DHT22;168;48.872;9.226;2023-07-09T01:03:25;23.00;78.90
360;DHT22;168;48.872;9.226;2023-07-09T01:05:53;22.90;78.90
360;DHT22;168;48.872;9.226;2023-07-09T01:08:21;22.90;79.10
360;DHT22;168;48.872;9.226;2023-07-09T01:10:48;22.80;79.40
360;DHT22;168;48.872;9.226;2023-07-09T01:13:17;22.80;79.50
360;DHT22;168;48.872;9.226;2023-07-09T01:15:46;22.80;79.80
360;DHT22;168;48.872;9.226;2023-07-09T01:18:14;22.80;79.90
360;DHT22;168;48.872;9.226;2023-07-09T01:20:41;22.70;80.00
360;DHT22;168;48.872;9.226;2023-07-09T01:23:10;22.70;80.20
360;DHT22;168;48.872;9.226;2023-07-09T01:25:42;22.70;80.40
360;DHT22;168;48.872;9.226;2023-07-09T01:28:10;22.60;80.70
360;DHT22;168;48.872;9.226;2023-07-09T01:30:39;22.60;81.00
360;DHT22;168;48.872;9.226;2023-07-09T01:33:07;22.60;81.20
360;DHT22;168;48.872;9.226;2023-07-09T01:35:38;22.50;81.20
360;DHT22;168;48.872;9.226;2023-07-09T01:38:07;22.50;81.30
360;DHT22;168;48.872;9.226;2023-07-09T01:40:37;22.40;81.50
360;DHT22;168;48.872;9.226;2023-07-09T01:43:05;22.40;81.80
360;DHT22;168;48.872;9.226;2023-07-09T01:45:34;22.40;82.00
360;DHT22;168;48.872;9.226;2023-07-09T01:48:02;22.40;82.30
360;DHT22;168;48.872;9.226;2023-07-09T01:50:30;22.30;82.40
360;DHT22;168;48.872;9.226;2023-07-09T01:52:57;22.30;82.60
360;DHT22;168;48.872;9.226;2023-07-09T01:55:25;22.20;82.70
360;DHT22;168;48.872;9.226;2023-07-09T01:57:54;22.20;83.00
360;DHT22;168;48.872;9.226;2023-07-09T02:00:21;22.20;83.00
360;DHT22;168;48.872;9.226;2023-07-09T02:02:49;22.20;83.10
360;DHT22;168;48.872;9.226;2023-07-09T02:05:19;22.20;83.20
360;DHT22;168;48.872;9.226;2023-07-09T02:07:47;22.20;83.30
360;DHT22;168;48.872;9.226;2023-07-09T02:10:15;22.10;83.20
360;DHT22;168;48.872;9.226;2023-07-09T02:12:44;22.10;83.60
360;DHT22;168;48.872;9.226;2023-07-09T02:15:13;22.10;83.90
360;DHT22;168;48.872;9.226;2023-07-09T02:17:41;22.00;84.20
360;DHT22;168;48.872;9.226;2023-07-09T02:20:10;22.00;84.30
360;DHT22;168;48.872;9.226;2023-07-09T02:22:38;22.00;84.30
360;DHT22;168;48.872;9.226;2023-07-09T02:25:06;22.00;84.70
360;DHT22;168;48.872;9.226;2023-07-09T02:27:35;21.90;84.80
360;DHT22;168;48.872;9.226;2023-07-09T02:30:04;21.90;84.90
360;DHT22;168;48.872;9.226;2023-07-09T02:32:33;21.90;85.30
360;DHT22;168;48.872;9.226;2023-07-09T02:35:01;21.80;85.20
360;DHT22;168;48.872;9.226;2023-07-09T02:37:28;21.80;85.40
360;DHT22;168;48.872;9.226;2023-07-09T02:39:55;21.80;85.60
360;DHT22;168;48.872;9.226;2023-07-09T02:42:23;21.80;85.50
360;DHT22;168;48.872;9.226;2023-07-09T02:44:50;21.80;85.60
360;DHT22;168;48.872;9.226;2023-07-09T02:47:18;21.80;85.60
360;DHT22;168;48.872;9.226;2023-07-09T02:49:48;21.80;85.60
360;DHT22;168;48.872;9.226;2023-07-09T02:52:15;21.70;85.50
360;DHT22;168;48.872;9.226;2023-07-09T02:54:43;21.70;85.50
360;DHT22;168;48.872;9.226;2023-07-09T02:57:11;21.70;85.50
360;DHT22;168;48.872;9.226;2023-07-09T02:59:38;21.60;85.50
360;DHT22;168;48.872;9.226;2023-07-09T03:02:06;21.60;85.50
360;DHT22;168;48.872;9.226;2023-07-09T03:04:33;21.60;85.90
360;DHT22;168;48.872;9.226;2023-07-09T03:07:02;21.60;86.10
360;DHT22;168;48.872;9.226;2023-07-09T03:09:29;21.50;86.20
360;DHT22;168;48.872;9.226;2023-07-09T03:11:57;21.50;86.30
360;DHT22;168;48.872;9.226;2023-07-09T03:14:24;21.40;86.30
360;DHT22;168;48.872;9.226;2023-07-09T03:16:52;21.40;86.50
360;DHT22;168;48.872;9.226;2023-07-09T03:19:19;21.40;86.60
360;DHT22;168;48.872;9.226;2023-07-09T03:21:47;21.40;86.80
360;DHT22;168;48.872;9.226;2023-07-09T03:24:16;21.40;86.80
360;DHT22;168;48.872;9.226;2023-07-09T03:26:44;21.30;86.90
360;DHT22;168;48.872;9.226;2023-07-09T03:29:12;21.30;87.20
360;DHT22;168;48.872;9.226;2023-07-09T03:31:39;21.20;87.40
360;DHT22;168;48.872;9.226;2023-07-09T03:34:06;21.30;87.40
360;DHT22;168;48.872;9.226;2023-07-09T03:36:34;21.20;87.40
360;DHT22;168;48.872;9.226;2023-07-09T03:39:03;21.20;87.30
360;DHT22;168;48.872;9.226;2023-07-09T03:41:32;21.20;87.30
360;DHT22;168;48.872;9.226;2023-07-09T03:43:59;21.20;87.50
360;DHT22;168;48.872;9.226;2023-07-09T03:46:27;21.10;87.70
360;DHT22;168;48.872;9.226;2023-07-09T03:48:54;21.10;87.90
360;DHT22;168;48.872;9.226;2023-07-09T03:51:22;21.00;88.10
360;DHT22;168;48.872;9.226;2023-07-09T03:53:49;21.00;88.10
360;DHT22;168;48.872;9.226;2023-07-09T03:56:17;21.10;88.00
360;DHT22;168;48.872;9.226;2023-07-09T03:58:46;21.10;88.00
360;DHT22;168;48.872;9.226;2023-07-09T04:01:13;21.00;88.10
360;DHT22;168;48.872;9.226;2023-07-09T04:03:42;21.00;88.10
360;DHT22;168;48.872;9.226;2023-07-09T04:06:09;20.90;88.30
360;DHT22;168;48.872;9.226;2023-07-09T04:08:37;20.90;88.50
360;DHT22;168;48.872;9.226;2023-07-09T04:11:04;20.90;88.50
360;DHT22;168;48.872;9.226;2023-07-09T04:13:31;20.90;88.50
360;DHT22;168;48.872;9.226;2023-07-09T04:16:00;20.90;88.50
360;DHT22;168;48.872;9.226;2023-07-09T04:18:27;20.90;88.50
360;DHT22;168;48.872;9.226;2023-07-09T04:20:55;21.00;88.50
360;DHT22;168;48.872;9.226;2023-07-09T04:23:22;21.00;88.50
360;DHT22;168;48.872;9.226;2023-07-09T04:25:50;21.10;88.50
360;DHT22;168;48.872;9.226;2023-07-09T04:28:17;21.10;88.30
360;DHT22;168;48.872;9.226;2023-07-09T04:30:48;21.10;88.40
360;DHT22;168;48.872;9.226;2023-07-09T04:33:19;21.10;88.50
360;DHT22;168;48.872;9.226;2023-07-09T04:35:47;21.20;88.40
360;DHT22;168;48.872;9.226;2023-07-09T04:38:15;21.30;88.20
360;DHT22;168;48.872;9.226;2023-07-09T04:40:43;21.30;88.00
360;DHT22;168;48.872;9.226;2023-07-09T04:43:10;21.30;88.00
360;DHT22;168;48.872;9.226;2023-07-09T04:45:38;21.30;88.10
360;DHT22;168;48.872;9.226;2023-07-09T04:48:06;21.40;87.90
360;DHT22;168;48.872;9.226;2023-07-09T04:50:34;21.40;87.80
360;DHT22;168;48.872;9.226;2023-07-09T04:53:02;21.50;87.60
360;DHT22;168;48.872;9.226;2023-07-09T04:55:29;21.50;87.40
360;DHT22;168;48.872;9.226;2023-07-09T04:57:57;21.60;87.20
360;DHT22;168;48.872;9.226;2023-07-09T05:00:24;21.60;87.10
360;DHT22;168;48.872;9.226;2023-07-09T05:02:51;21.70;86.90
360;DHT22;168;48.872;9.226;2023-07-09T05:05:19;21.80;86.90
360;DHT22;168;48.872;9.226;2023-07-09T05:07:47;21.80;86.90
360;DHT22;168;48.872;9.226;2023-07-09T05:10:15;21.90;86.90
360;DHT22;168;48.872;9.226;2023-07-09T05:12:49;22.00;86.80
360;DHT22;168;48.872;9.226;2023-07-09T05:15:17;22.00;86.70
360;DHT22;168;48.872;9.226;2023-07-09T05:17:45;22.10;86.80
360;DHT22;168;48.872;9.226;2023-07-09T05:20:13;22.20;86.70
360;DHT22;168;48.872;9.226;2023-07-09T05:22:41;22.30;86.60
360;DHT22;168;48.872;9.226;2023-07-09T05:25:10;22.40;86.50
360;DHT22;168;48.872;9.226;2023-07-09T05:27:38;22.40;86.50
360;DHT22;168;48.872;9.226;2023-07-09T05:30:06;22.50;86.40
360;DHT22;168;48.872;9.226;2023-07-09T05:32:34;22.60;86.20
360;DHT22;168;48.872;9.226;2023-07-09T05:35:01;22.70;86.00
360;DHT22;168;48.872;9.226;2023-07-09T05:37:29;22.70;85.70
360;DHT22;168;48.872;9.226;2023-07-09T05:39:57;22.80;85.40
360;DHT22;168;48.872;9.226;2023-07-09T05:42:25;22.90;85.30
360;DHT22;168;48.872;9.226;2023-07-09T05:44:53;23.00;85.20
360;DHT22;168;48.872;9.226;2023-07-09T05:47:20;23.00;85.20
360;DHT22;168;48.872;9.226;2023-07-09T05:49:47;23.10;84.90
360;DHT22;168;48.872;9.226;2023-07-09T05:52:16;23.20;84.40
360;DHT22;168;48.872;9.226;2023-07-09T05:54:48;23.30;84.10
360;DHT22;168;48.872;9.226;2023-07-09T05:57:15;23.40;83.90
360;DHT22;168;48.872;9.226;2023-07-09T05:59:44;23.40;83.90
360;DHT22;168;48.872;9.226;2023-07-09T06:02:13;23.50;84.00
360;DHT22;168;48.872;9.226;2023-07-09T06:04:40;23.60;83.10
360;DHT22;168;48.872;9.226;2023-07-09T06:07:08;23.70;82.60
360;DHT22;168;48.872;9.226;2023-07-09T06:09:36;23.80;82.60
360;DHT22;168;48.872;9.226;2023-07-09T06:12:04;23.80;82.70
360;DHT22;168;48.872;9.226;2023-07-09T06:14:32;23.90;82.80
360;DHT22;168;48.872;9.226;2023-07-09T06:17:01;23.90;82.50
360;DHT22;168;48.872;9.226;2023-07-09T06:19:28;24.00;82.60
360;DHT22;168;48.872;9.226;2023-07-09T06:21:56;24.10;82.30
360;DHT22;168;48.872;9.226;2023-07-09T06:24:23;24.20;82.10
360;DHT22;168;48.872;9.226;2023-07-09T06:26:51;24.40;81.40
360;DHT22;168;48.872;9.226;2023-07-09T06:29:18;24.50;81.10
360;DHT22;168;48.872;9.226;2023-07-09T06:31:45;24.60;80.90
360;DHT22;168;48.872;9.226;2023-07-09T06:34:14;24.60;80.50
360;DHT22;168;48.872;9.226;2023-07-09T06:36:42;24.70;80.40
360;DHT22;168;48.872;9.226;2023-07-09T06:39:09;24.90;79.70
360;DHT22;168;48.872;9.226;2023-07-09T06:41:36;25.00;78.40
360;DHT22;168;48.872;9.226;2023-07-09T06:44:05;25.10;78.40
360;DHT22;168;48.872;9.226;2023-07-09T06:46:33;25.20;78.10
360;DHT22;168;48.872;9.226;2023-07-09T06:49:01;25.30;78.00
360;DHT22;168;48.872;9.226;2023-07-09T06:51:29;25.30;77.40
360;DHT22;168;48.872;9.226;2023-07-09T06:53:57;25.40;77.20
360;DHT22;168;48.872;9.226;2023-07-09T06:56:24;25.50;77.00
360;DHT22;168;48.872;9.226;2023-07-09T06:58:51;25.60;76.50
360;DHT22;168;48.872;9.226;2023-07-09T07:01:19;25.80;75.40
360;DHT22;168;48.872;9.226;2023-07-09T07:03:46;26.00;74.90
360;DHT22;168;48.872;9.226;2023-07-09T07:06:14;26.10;74.10
360;DHT22;168;48.872;9.226;2023-07-09T07:08:43;26.20;73.80
360;DHT22;168;48.872;9.226;2023-07-09T07:11:10;26.30;73.70
360;DHT22;168;48.872;9.226;2023-07-09T07:13:39;26.40;73.60
360;DHT22;168;48.872;9.226;2023-07-09T07:16:08;26.50;72.90
360;DHT22;168;48.872;9.226;2023-07-09T07:18:36;26.60;71.80
360;DHT22;168;48.872;9.226;2023-07-09T07:21:03;26.70;71.80
360;DHT22;168;48.872;9.226;2023-07-09T07:23:32;26.80;71.00
360;DHT22;168;48.872;9.226;2023-07-09T07:26:00;27.00;70.70
360;DHT22;168;48.872;9.226;2023-07-09T07:28:28;27.10;70.10
360;DHT22;168;48.872;9.226;2023-07-09T07:30:59;27.20;69.80
360;DHT22;168;48.872;9.226;2023-07-09T07:33:26;27.30;69.70
360;DHT22;168;48.872;9.226;2023-07-09T07:35:54;27.40;69.30
360;DHT22;168;48.872;9.226;2023-07-09T07:38:21;27.50;68.60
360;DHT22;168;48.872;9.226;2023-07-09T07:40:49;27.60;68.80
360;DHT22;168;48.872;9.226;2023-07-09T07:43:17;27.60;68.40
360;DHT22;168;48.872;9.226;2023-07-09T07:45:45;27.80;67.30
360;DHT22;168;48.872;9.226;2023-07-09T07:48:12;27.80;66.90
360;DHT22;168;48.872;9.226;2023-07-09T07:50:40;27.90;67.30
360;DHT22;168;48.872;9.226;2023-07-09T07:53:07;28.00;66.70
360;DHT22;168;48.872;9.226;2023-07-09T07:55:35;28.10;66.50
360;DHT22;168;48.872;9.226;2023-07-09T07:58:04;28.30;64.60
360;DHT22;168;48.872;9.226;2023-07-09T08:00:32;28.40;64.50
360;DHT22;168;48.872;9.226;2023-07-09T08:03:00;28.50;64.30
360;DHT22;168;48.872;9.226;2023-07-09T08:05:27;28.60;63.70
360;DHT22;168;48.872;9.226;2023-07-09T08:07:54;28.70;63.50
360;DHT22;168;48.872;9.226;2023-07-09T08:10:22;28.70;63.60
360;DHT22;168;48.872;9.226;2023-07-09T08:12:49;28.80;64.50
360;DHT22;168;48.872;9.226;2023-07-09T08:15:17;29.00;63.60
360;DHT22;168;48.872;9.226;2023-07-09T08:17:46;29.10;63.40
360;DHT22;168;48.872;9.226;2023-07-09T08:20:13;29.10;64.40
360;DHT22;168;48.872;9.226;2023-07-09T08:22:41;29.30;63.50
360;DHT22;168;48.872;9.226;2023-07-09T08:25:08;29.40;63.00
360;DHT22;168;48.872;9.226;2023-07-09T08:27:36;29.40;63.30
360;DHT22;168;48.872;9.226;2023-07-09T08:30:04;29.50;62.90
360;DHT22;168;48.872;9.226;2023-07-09T08:32:31;29.60;62.90
360;DHT22;168;48.872;9.226;2023-07-09T08:35:00;29.80;62.40
360;DHT22;168;48.872;9.226;2023-07-09T08:37:27;29.90;61.80
360;DHT22;168;48.872;9.226;2023-07-09T08:39:54;30.00;60.50
360;DHT22;168;48.872;9.226;2023-07-09T08:42:28;30.10;60.80
360;DHT22;168;48.872;9.226;2023-07-09T08:45:09;30.20;60.30
360;DHT22;168;48.872;9.226;2023-07-09T08:47:46;30.40;59.50
360;DHT22;168;48.872;9.226;2023-07-09T08:50:18;30.50;58.80
360;DHT22;168;48.872;9.226;2023-07-09T08:52:48;30.50;59.20
360;DHT22;168;48.872;9.226;2023-07-09T08:55:18;30.60;59.00
360;DHT22;168;48.872;9.226;2023-07-09T08:57:48;30.70;58.60
360;DHT22;168;48.872;9.226;2023-07-09T09:00:20;30.80;57.60
360;DHT22;168;48.872;9.226;2023-07-09T09:02:51;30.90;57.40
360;DHT22;168;48.872;9.226;2023-07-09T09:05:21;31.00;57.30
360;DHT22;168;48.872;9.226;2023-07-09T09:07:57;31.10;57.00
360;DHT22;168;48.872;9.226;2023-07-09T09:10:32;31.20;56.90
360;DHT22;168;48.872;9.226;2023-07-09T09:13:06;31.30;56.00
360;DHT22;168;48.872;9.226;2023-07-09T09:15:37;31.50;56.10
360;DHT22;168;48.872;9.226;2023-07-09T09:18:20;31.50;56.00
360;DHT22;168;48.872;9.226;2023-07-09T09:20:53;31.50;56.50
360;DHT22;168;48.872;9.226;2023-07-09T09:23:22;31.60;56.70
360;DHT22;168;48.872;9.226;2023-07-09T09:25:55;31.80;55.70
360;DHT22;168;48.872;9.226;2023-07-09T09:28:23;31.80;56.40
360;DHT22;168;48.872;9.226;2023-07-09T09:30:52;31.90;56.30
360;DHT22;168;48.872;9.226;2023-07-09T09:33:19;32.00;55.50
360;DHT22;168;48.872;9.226;2023-07-09T09:35:47;32.10;55.90
360;DHT22;168;48.872;9.226;2023-07-09T09:38:21;32.20;54.90
360;DHT22;168;48.872;9.226;2023-07-09T09:40:48;32.30;54.30
360;DHT22;168;48.872;9.226;2023-07-09T09:43:19;32.40;54.00
360;DHT22;168;48.872;9.226;2023-07-09T09:45:48;32.50;54.30
360;DHT22;168;48.872;9.226;2023-07-09T09:48:17;32.50;54.20
360;DHT22;168;48.872;9.226;2023-07-09T09:50:46;32.70;54.10
360;DHT22;168;48.872;9.226;2023-07-09T09:53:19;32.80;53.50
360;DHT22;168;48.872;9.226;2023-07-09T09:55:48;33.00;51.50
360;DHT22;168;48.872;9.226;2023-07-09T09:58:17;33.00;51.00
360;DHT22;168;48.872;9.226;2023-07-09T10:00:50;33.20;50.90
360;DHT22;168;48.872;9.226;2023-07-09T10:03:18;33.30;50.30
360;DHT22;168;48.872;9.226;2023-07-09T10:05:50;33.20;50.80
360;DHT22;168;48.872;9.226;2023-07-09T10:08:29;33.10;51.40
360;DHT22;168;48.872;9.226;2023-07-09T10:11:08;33.20;51.50
360;DHT22;168;48.872;9.226;2023-07-09T10:13:41;33.30;50.80
360;DHT22;168;48.872;9.226;2023-07-09T10:16:16;33.50;50.00
360;DHT22;168;48.872;9.226;2023-07-09T10:18:51;33.60;49.20
360;DHT22;168;48.872;9.226;2023-07-09T10:21:25;33.80;48.40
360;DHT22;168;48.872;9.226;2023-07-09T10:24:05;33.90;47.50
360;DHT22;168;48.872;9.226;2023-07-09T10:26:40;33.90;48.40
360;DHT22;168;48.872;9.226;2023-07-09T10:29:37;33.90;48.80
360;DHT22;168;48.872;9.226;2023-07-09T10:32:14;34.00;48.10
360;DHT22;168;48.872;9.226;2023-07-09T10:34:48;34.00;48.10
360;DHT22;168;48.872;9.226;2023-07-09T10:37:32;34.10;48.00
360;DHT22;168;48.872;9.226;2023-07-09T10:40:09;34.20;47.40
360;DHT22;168;48.872;9.226;2023-07-09T10:42:42;34.30;47.40
360;DHT22;168;48.872;9.226;2023-07-09T10:45:13;34.40;47.60
360;DHT22;168;48.872;9.226;2023-07-09T10:47:44;34.50;46.70
360;DHT22;168;48.872;9.226;2023-07-09T10:50:16;34.70;47.40
360;DHT22;168;48.872;9.226;2023-07-09T10:52:47;34.80;46.90
360;DHT22;168;48.872;9.226;2023-07-09T10:55:24;35.00;46.80
360;DHT22;168;48.872;9.226;2023-07-09T10:57:57;35.10;46.20
360;DHT22;168;48.872;9.226;2023-07-09T11:00:34;35.20;43.80
360;DHT22;168;48.872;9.226;2023-07-09T11:03:05;35.30;43.50
360;DHT22;168;48.872;9.226;2023-07-09T11:05:37;35.30;43.70
360;DHT22;168;48.872;9.226;2023-07-09T11:08:07;35.30;43.90
360;DHT22;168;48.872;9.226;2023-07-09T11:10:44;35.30;44.60
360;DHT22;168;48.872;9.226;2023-07-09T11:13:15;35.10;44.50
360;DHT22;168;48.872;9.226;2023-07-09T11:15:47;35.10;44.50
360;DHT22;168;48.872;9.226;2023-07-09T11:18:20;35.00;45.30
360;DHT22;168;48.872;9.226;2023-07-09T11:20:56;35.00;44.90
360;DHT22;168;48.872;9.226;2023-07-09T11:23:25;35.20;44.50
360;DHT22;168;48.872;9.226;2023-07-09T11:26:09;35.30;43.70
360;DHT22;168;48.872;9.226;2023-07-09T11:28:39;35.40;43.50
360;DHT22;168;48.872;9.226;2023-07-09T11:31:08;35.60;43.40
360;DHT22;168;48.872;9.226;2023-07-09T11:33:47;35.80;43.20
360;DHT22;168;48.872;9.226;2023-07-09T11:36:24;35.80;41.50
360;DHT22;168;48.872;9.226;2023-07-09T11:38:53;35.80;42.60
360;DHT22;168;48.872;9.226;2023-07-09T11:45:00;35.90;42.40
360;DHT22;168;48.872;9.226;2023-07-09T11:47:31;36.00;42.40
360;DHT22;168;48.872;9.226;2023-07-09T11:50:03;36.00;42.00
360;DHT22;168;48.872;9.226;2023-07-09T11:52:33;36.10;41.60
360;DHT22;168;48.872;9.226;2023-07-09T11:55:26;36.00;43.00
360;DHT22;168;48.872;9.226;2023-07-09T11:57:55;36.10;42.80
360;DHT22;168;48.872;9.226;2023-07-09T12:00:26;36.10;41.90
360;DHT22;168;48.872;9.226;2023-07-09T12:02:56;36.20;41.40
360;DHT22;168;48.872;9.226;2023-07-09T12:05:27;36.30;41.40
360;DHT22;168;48.872;9.226;2023-07-09T12:07:56;36.40;41.10
360;DHT22;168;48.872;9.226;2023-07-09T12:10:26;36.40;40.30
360;DHT22;168;48.872;9.226;2023-07-09T12:12:55;36.40;40.90
360;DHT22;168;48.872;9.226;2023-07-09T12:15:26;36.40;40.40
360;DHT22;168;48.872;9.226;2023-07-09T12:17:55;36.20;40.00
360;DHT22;168;48.872;9.226;2023-07-09T12:20:24;35.90;40.80
360;DHT22;168;48.872;9.226;2023-07-09T12:22:52;35.80;41.60
360;DHT22;168;48.872;9.226;2023-07-09T12:25:23;35.90;41.20
360;DHT22;168;48.872;9.226;2023-07-09T12:27:54;36.10;41.10
360;DHT22;168;48.872;9.226;2023-07-09T12:30:21;36.30;40.40
360;DHT22;168;48.872;9.226;2023-07-09T12:32:50;36.30;40.80
360;DHT22;168;48.872;9.226;2023-07-09T12:35:19;36.40;41.50
360;DHT22;168;48.872;9.226;2023-07-09T12:37:49;36.60;40.70
360;DHT22;168;48.872;9.226;2023-07-09T12:40:21;36.70;39.50
360;DHT22;168;48.872;9.226;2023-07-09T12:42:49;36.80;40.00
360;DHT22;168;48.872;9.226;2023-07-09T12:45:19;36.90;39.40
360;DHT22;168;48.872;9.226;2023-07-09T12:47:47;36.90;39.60
360;DHT22;168;48.872;9.226;2023-07-09T12:50:22;36.90;39.80
360;DHT22;168;48.872;9.226;2023-07-09T12:52:56;36.90;40.00
360;DHT22;168;48.872;9.226;2023-07-09T12:55:25;37.00;38.70
360;DHT22;168;48.872;9.226;2023-07-09T12:57:55;37.00;40.10
360;DHT22;168;48.872;9.226;2023-07-09T13:00:25;37.00;39.40
360;DHT22;168;48.872;9.226;2023-07-09T13:02:54;37.20;38.60
360;DHT22;168;48.872;9.226;2023-07-09T13:05:25;37.30;38.10
360;DHT22;168;48.872;9.226;2023-07-09T13:07:54;37.50;38.00
360;DHT22;168;48.872;9.226;2023-07-09T13:10:24;37.60;38.00
360;DHT22;168;48.872;9.226;2023-07-09T13:12:54;37.80;37.70
360;DHT22;168;48.872;9.226;2023-07-09T13:15:25;38.00;37.60
360;DHT22;168;48.872;9.226;2023-07-09T13:18:03;38.10;36.30
360;DHT22;168;48.872;9.226;2023-07-09T13:20:34;38.10;35.40
360;DHT22;168;48.872;9.226;2023-07-09T13:23:09;38.00;35.80
360;DHT22;168;48.872;9.226;2023-07-09T13:25:38;38.10;36.20
360;DHT22;168;48.872;9.226;2023-07-09T13:28:14;38.30;36.10
360;DHT22;168;48.872;9.226;2023-07-09T13:30:42;38.60;35.50
360;DHT22;168;48.872;9.226;2023-07-09T13:33:10;38.80;33.90
360;DHT22;168;48.872;9.226;2023-07-09T13:35:38;39.10;34.30
360;DHT22;168;48.872;9.226;2023-07-09T13:38:12;39.40;34.70
360;DHT22;168;48.872;9.226;2023-07-09T13:40:40;39.70;34.20
360;DHT22;168;48.872;9.226;2023-07-09T13:43:12;39.90;34.30
360;DHT22;168;48.872;9.226;2023-07-09T13:45:40;40.10;33.80
360;DHT22;168;48.872;9.226;2023-07-09T13:48:13;40.30;34.60
360;DHT22;168;48.872;9.226;2023-07-09T13:50:44;40.60;35.30
360;DHT22;168;48.872;9.226;2023-07-09T13:53:14;40.80;34.30
360;DHT22;168;48.872;9.226;2023-07-09T13:55:42;41.00;33.90
360;DHT22;168;48.872;9.226;2023-07-09T13:58:10;41.10;33.80
360;DHT22;168;48.872;9.226;2023-07-09T14:00:37;41.20;33.60
360;DHT22;168;48.872;9.226;2023-07-09T14:03:12;41.40;33.40
360;DHT22;168;48.872;9.226;2023-07-09T14:05:40;41.40;32.80
360;DHT22;168;48.872;9.226;2023-07-09T14:08:09;41.50;32.60
360;DHT22;168;48.872;9.226;2023-07-09T14:10:37;41.50;32.80
360;DHT22;168;48.872;9.226;2023-07-09T14:13:04;41.60;33.00
360;DHT22;168;48.872;9.226;2023-07-09T14:15:32;41.70;32.40
360;DHT22;168;48.872;9.226;2023-07-09T14:17:59;41.80;32.40
360;DHT22;168;48.872;9.226;2023-07-09T14:20:27;42.10;32.30
360;DHT22;168;48.872;9.226;2023-07-09T14:22:55;42.20;31.60
360;DHT22;168;48.872;9.226;2023-07-09T14:25:25;42.20;31.70
360;DHT22;168;48.872;9.226;2023-07-09T14:27:54;42.20;31.40
360;DHT22;168;48.872;9.226;2023-07-09T14:30:23;42.40;32.20
360;DHT22;168;48.872;9.226;2023-07-09T14:32:51;42.70;32.10
360;DHT22;168;48.872;9.226;2023-07-09T14:35:20;43.10;32.40
360;DHT22;168;48.872;9.226;2023-07-09T14:37:49;43.30;32.10
360;DHT22;168;48.872;9.226;2023-07-09T14:40:18;43.40;31.70
360;DHT22;168;48.872;9.226;2023-07-09T14:42:49;43.40;31.30
360;DHT22;168;48.872;9.226;2023-07-09T14:45:19;43.40;31.00
360;DHT22;168;48.872;9.226;2023-07-09T14:47:48;43.10;30.90
360;DHT22;168;48.872;9.226;2023-07-09T14:50:16;42.90;31.40
360;DHT22;168;48.872;9.226;2023-07-09T14:52:45;42.90;31.40
360;DHT22;168;48.872;9.226;2023-07-09T14:55:15;43.10;30.60
360;DHT22;168;48.872;9.226;2023-07-09T14:57:42;43.30;31.00
360;DHT22;168;48.872;9.226;2023-07-09T15:00:15;43.30;30.80
360;DHT22;168;48.872;9.226;2023-07-09T15:02:45;43.40;31.00
360;DHT22;168;48.872;9.226;2023-07-09T15:05:15;43.50;31.00
360;DHT22;168;48.872;9.226;2023-07-09T15:07:42;43.80;31.60
360;DHT22;168;48.872;9.226;2023-07-09T15:10:15;44.10;31.60
360;DHT22;168;48.872;9.226;2023-07-09T15:12:44;44.30;31.70
360;DHT22;168;48.872;9.226;2023-07-09T15:15:18;44.40;31.20
360;DHT22;168;48.872;9.226;2023-07-09T15:17:47;44.50;31.40
360;DHT22;168;48.872;9.226;2023-07-09T15:20:16;44.60;31.40
360;DHT22;168;48.872;9.226;2023-07-09T15:22:44;44.90;31.40
360;DHT22;168;48.872;9.226;2023-07-09T15:25:14;45.10;31.00
360;DHT22;168;48.872;9.226;2023-07-09T15:27:42;45.30;30.90
360;DHT22;168;48.872;9.226;2023-07-09T15:30:14;45.30;31.00
360;DHT22;168;48.872;9.226;2023-07-09T15:32:43;45.30;31.20
360;DHT22;168;48.872;9.226;2023-07-09T15:35:10;45.20;31.70
360;DHT22;168;48.872;9.226;2023-07-09T15:37:38;45.10;31.30
360;DHT22;168;48.872;9.226;2023-07-09T15:40:17;44.90;31.80
360;DHT22;168;48.872;9.226;2023-07-09T15:42:46;44.70;32.30
360;DHT22;168;48.872;9.226;2023-07-09T15:45:15;44.50;32.40
360;DHT22;168;48.872;9.226;2023-07-09T15:47:45;44.30;32.50
360;DHT22;168;48.872;9.226;2023-07-09T15:50:15;44.00;33.00
360;DHT22;168;48.872;9.226;2023-07-09T15:52:43;43.70;33.40
360;DHT22;168;48.872;9.226;2023-07-09T15:55:15;43.50;33.50
360;DHT22;168;48.872;9.226;2023-07-09T15:57:43;43.40;33.40
360;DHT22;168;48.872;9.226;2023-07-09T16:00:20;43.30;33.20
360;DHT22;168;48.872;9.226;2023-07-09T16:03:09;43.10;33.30
360;DHT22;168;48.872;9.226;2023-07-09T16:05:36;42.90;32.70
360;DHT22;168;48.872;9.226;2023-07-09T16:08:04;42.90;33.10
360;DHT22;168;48.872;9.226;2023-07-09T16:10:32;42.90;33.30
360;DHT22;168;48.872;9.226;2023-07-09T16:12:59;42.90;33.50
360;DHT22;168;48.872;9.226;2023-07-09T16:15:27;42.90;33.00
360;DHT22;168;48.872;9.226;2023-07-09T16:17:54;42.80;33.30
360;DHT22;168;48.872;9.226;2023-07-09T16:20:25;42.70;33.30
360;DHT22;168;48.872;9.226;2023-07-09T16:22:54;42.50;34.00
360;DHT22;168;48.872;9.226;2023-07-09T16:25:26;42.30;34.10
360;DHT22;168;48.872;9.226;2023-07-09T16:27:53;42.20;35.00
360;DHT22;168;48.872;9.226;2023-07-09T16:30:23;42.00;33.70
360;DHT22;168;48.872;9.226;2023-07-09T16:32:51;41.70;33.90
360;DHT22;168;48.872;9.226;2023-07-09T16:35:20;41.50;34.10
360;DHT22;168;48.872;9.226;2023-07-09T16:37:50;41.30;34.60
360;DHT22;168;48.872;9.226;2023-07-09T16:40:20;41.20;34.40
360;DHT22;168;48.872;9.226;2023-07-09T16:42:49;41.10;35.10
360;DHT22;168;48.872;9.226;2023-07-09T16:45:18;41.00;35.30
360;DHT22;168;48.872;9.226;2023-07-09T16:47:47;41.00;35.90
360;DHT22;168;48.872;9.226;2023-07-09T16:50:18;41.00;36.20
360;DHT22;168;48.872;9.226;2023-07-09T16:52:46;41.00;36.10